sensor_id;sensor_type;location;lat;lon;timestamp;pressure;altitude;pressure_sealevel;temperature;humidity
59654;BME280;45496;52.010;5.418;2022-07-10T00:04:13;102740.00000000001;;;35.35;21.27
59654;BME280;45496;52.010;5.418;2022-07-10T00:06:00;102736.99999999999;;;35.24;21.45
59654;BME280;45496;52.010;5.418;2022-07-10T00:07:48;102733.0;;;35.07;21.58
59654;BME280;45496;52.010;5.418;2022-07-10T00:09:34;102733.0;;;35.36;21.37
59654;BME280;45496;52.010;5.418;2022-07-10T00:11:21;102728.0;;;35.43;21.34
59654;BME280;45496;52.010;5.418;2022-07-10T00:13:08;102723.0;;;35.44;21.36
59654;BME280;45496;52.010;5.418;2022-07-10T00:16:42;102722.0;;;35.61;21.22
59654;BME280;45496;52.010;5.418;2022-07-10T00:18:29;102719.0;;;35.57;21.18
59654;BME280;45496;52.010;5.418;2022-07-10T00:20:16;102713.00000000001;;;34.69;22.32
59654;BME280;45496;52.010;5.418;2022-07-10T00:22:04;102713.00000000001;;;34.85;22.12
59654;BME280;45496;52.010;5.418;2022-07-10T00:23:50;102708.99999999999;;;35.04;21.84
59654;BME280;45496;52.010;5.418;2022-07-10T00:27:24;102711.99999999999;;;35.15;21.78
59654;BME280;45496;52.010;5.418;2022-07-10T00:29:12;102708.99999999999;;;34.96;21.94
59654;BME280;45496;52.010;5.418;2022-07-10T00:30:58;102713.00000000001;;;34.85;22.04
59654;BME280;45496;52.010;5.418;2022-07-10T00:32:45;102715.00000000001;;;35.46;21.37
59654;BME280;45496;52.010;5.418;2022-07-10T00:34:32;102713.00000000001;;;34.9;22.0
59654;BME280;45496;52.010;5.418;2022-07-10T00:36:19;102715.00000000001;;;34.93;22.02
59654;BME280;45496;52.010;5.418;2022-07-10T00:39:54;102713.00000000001;;;35.11;21.85
59654;BME280;45496;52.010;5.418;2022-07-10T00:41:41;102713.00000000001;;;34.67;22.25
59654;BME280;45496;52.010;5.418;2022-07-10T00:43:27;102709.99999999999;;;35.11;21.85
59654;BME280;45496;52.010;5.418;2022-07-10T00:45:14;102708.0;;;34.86;22.08
59654;BME280;45496;52.010;5.418;2022-07-10T00:47:02;102709.99999999999;;;35.31;21.58
59654;BME280;45496;52.010;5.418;2022-07-10T00:48:50;102707.0;;;35.04;21.95
59654;BME280;45496;52.010;5.418;2022-07-10T00:52:25;102707.0;;;35.14;21.82
59654;BME280;45496;52.010;5.418;2022-07-10T00:54:12;102711.99999999999;;;35.37;21.57
59654;BME280;45496;52.010;5.418;2022-07-10T00:55:58;102708.0;;;35.28;21.62
59654;BME280;45496;52.010;5.418;2022-07-10T00:57:45;102711.99999999999;;;35.46;21.45
59654;BME280;45496;52.010;5.418;2022-07-10T00:59:34;102711.99999999999;;;35.47;21.44
59654;BME280;45496;52.010;5.418;2022-07-10T01:01:23;102708.0;;;35.64;21.2
59654;BME280;45496;52.010;5.418;2022-07-10T01:04:57;102704.0;;;35.81;21.08
59654;BME280;45496;52.010;5.418;2022-07-10T01:06:44;102705.0;;;35.15;21.73
59654;BME280;45496;52.010;5.418;2022-07-10T01:08:32;102704.0;;;34.6;22.43
59654;BME280;45496;52.010;5.418;2022-07-10T01:10:19;102703.0;;;34.74;22.29
59654;BME280;45496;52.010;5.418;2022-07-10T01:12:07;102696.0;;;35.0;22.02
59654;BME280;45496;52.010;5.418;2022-07-10T01:13:56;102700.0;;;34.58;22.41
59654;BME280;45496;52.010;5.418;2022-07-10T01:17:32;102699.0;;;35.43;21.47
59654;BME280;45496;52.010;5.418;2022-07-10T01:19:19;102698.0;;;35.21;21.67
59654;BME280;45496;52.010;5.418;2022-07-10T01:21:06;102692.0;;;35.19;21.75
59654;BME280;45496;52.010;5.418;2022-07-10T01:23:09;102692.0;;;34.46;22.53
59654;BME280;45496;52.010;5.418;2022-07-10T01:24:56;102689.00000000001;;;34.62;22.26
59654;BME280;45496;52.010;5.418;2022-07-10T01:26:44;102686.99999999999;;;34.61;22.44
59654;BME280;45496;52.010;5.418;2022-07-10T01:28:32;102684.99999999999;;;34.96;22.03
59654;BME280;45496;52.010;5.418;2022-07-10T01:32:08;102683.0;;;34.53;22.51
59654;BME280;45496;52.010;5.418;2022-07-10T01:33:55;102682.0;;;34.89;22.06
59654;BME280;45496;52.010;5.418;2022-07-10T01:35:43;102682.0;;;35.14;21.85
59654;BME280;45496;52.010;5.418;2022-07-10T01:37:29;102679.0;;;35.08;21.93
59654;BME280;45496;52.010;5.418;2022-07-10T01:39:16;102674.0;;;35.19;21.8
59654;BME280;45496;52.010;5.418;2022-07-10T01:41:02;102672.0;;;35.06;21.98
59654;BME280;45496;52.010;5.418;2022-07-10T01:44:36;102673.0;;;34.89;22.17
59654;BME280;45496;52.010;5.418;2022-07-10T01:46:24;102673.0;;;34.89;22.28
59654;BME280;45496;52.010;5.418;2022-07-10T01:48:11;102676.0;;;34.93;22.17
59654;BME280;45496;52.010;5.418;2022-07-10T01:49:58;102670.0;;;34.71;22.43
59654;BME280;45496;52.010;5.418;2022-07-10T01:51:45;102675.0;;;34.42;22.71
59654;BME280;45496;52.010;5.418;2022-07-10T01:53:32;102674.0;;;34.61;22.5
59654;BME280;45496;52.010;5.418;2022-07-10T01:57:07;102668.0;;;34.44;22.71
59654;BME280;45496;52.010;5.418;2022-07-10T01:58:55;102673.0;;;34.49;22.71
59654;BME280;45496;52.010;5.418;2022-07-10T02:00:42;102676.0;;;34.67;22.4
59654;BME280;45496;52.010;5.418;2022-07-10T02:02:29;102673.0;;;34.99;22.03
59654;BME280;45496;52.010;5.418;2022-07-10T02:04:48;102672.0;;;34.67;22.55
59654;BME280;45496;52.010;5.418;2022-07-10T02:06:35;102668.0;;;34.87;22.22
59654;BME280;45496;52.010;5.418;2022-07-10T02:08:22;102668.0;;;34.96;22.21
59654;BME280;45496;52.010;5.418;2022-07-10T02:11:56;102667.0;;;34.74;22.43
59654;BME280;45496;52.010;5.418;2022-07-10T02:13:43;102668.0;;;35.0;22.2
59654;BME280;45496;52.010;5.418;2022-07-10T02:15:30;102667.0;;;34.71;22.53
59654;BME280;45496;52.010;5.418;2022-07-10T02:17:17;102669.0;;;34.81;22.46
59654;BME280;45496;52.010;5.418;2022-07-10T02:19:04;102668.0;;;35.03;22.28
59654;BME280;45496;52.010;5.418;2022-07-10T02:20:51;102665.00000000001;;;35.01;22.22
59654;BME280;45496;52.010;5.418;2022-07-10T02:24:25;102665.00000000001;;;34.99;22.32
59654;BME280;45496;52.010;5.418;2022-07-10T02:26:12;102665.00000000001;;;34.81;22.64
59654;BME280;45496;52.010;5.418;2022-07-10T02:27:58;102663.00000000001;;;34.5;22.9
59654;BME280;45496;52.010;5.418;2022-07-10T02:29:46;102667.0;;;34.71;22.79
59654;BME280;45496;52.010;5.418;2022-07-10T02:31:34;102663.00000000001;;;35.06;22.37
59654;BME280;45496;52.010;5.418;2022-07-10T02:33:21;102657.0;;;34.99;22.6
59654;BME280;45496;52.010;5.418;2022-07-10T02:36:55;102656.0;;;35.39;22.17
59654;BME280;45496;52.010;5.418;2022-07-10T02:38:43;102653.0;;;35.06;22.64
59654;BME280;45496;52.010;5.418;2022-07-10T02:40:30;102643.0;;;34.71;23.04
59654;BME280;45496;52.010;5.418;2022-07-10T02:42:17;102643.0;;;34.93;22.73
59654;BME280;45496;52.010;5.418;2022-07-10T02:44:04;102642.0;;;34.99;22.75
59654;BME280;45496;52.010;5.418;2022-07-10T02:45:51;102644.0;;;35.06;22.74
59654;BME280;45496;52.010;5.418;2022-07-10T02:49:26;102641.00000000001;;;35.32;22.42
59654;BME280;45496;52.010;5.418;2022-07-10T02:51:13;102640.00000000001;;;35.43;22.24
59654;BME280;45496;52.010;5.418;2022-07-10T02:53:00;102640.00000000001;;;35.21;22.45
59654;BME280;45496;52.010;5.418;2022-07-10T02:54:47;102644.0;;;34.86;22.77
59654;BME280;45496;52.010;5.418;2022-07-10T02:56:36;102645.0;;;34.78;22.84
59654;BME280;45496;52.010;5.418;2022-07-10T03:00:10;102642.0;;;35.24;22.36
59654;BME280;45496;52.010;5.418;2022-07-10T03:01:57;102644.0;;;35.25;22.21
59654;BME280;45496;52.010;5.418;2022-07-10T03:03:44;102638.00000000001;;;34.81;22.79
59654;BME280;45496;52.010;5.418;2022-07-10T03:05:30;102636.99999999999;;;34.89;22.85
59654;BME280;45496;52.010;5.418;2022-07-10T03:07:16;102642.0;;;34.96;22.76
59654;BME280;45496;52.010;5.418;2022-07-10T03:09:03;102648.0;;;34.76;22.97
59654;BME280;45496;52.010;5.418;2022-07-10T03:12:38;102649.0;;;34.78;22.95
59654;BME280;45496;52.010;5.418;2022-07-10T03:14:26;102648.0;;;34.85;22.86
59654;BME280;45496;52.010;5.418;2022-07-10T03:16:13;102650.0;;;34.6;23.23
59654;BME280;45496;52.010;5.418;2022-07-10T03:18:00;102655.0;;;34.72;23.02
59654;BME280;45496;52.010;5.418;2022-07-10T03:19:47;102658.99999999999;;;35.08;22.7
59654;BME280;45496;52.010;5.418;2022-07-10T03:21:34;102654.0;;;35.03;22.68
59654;BME280;45496;52.010;5.418;2022-07-10T03:25:09;102654.0;;;35.24;22.57
59654;BME280;45496;52.010;5.418;2022-07-10T03:26:56;102657.0;;;35.31;22.59
59654;BME280;45496;52.010;5.418;2022-07-10T03:28:43;102665.00000000001;;;35.24;22.56
59654;BME280;45496;52.010;5.418;2022-07-10T03:30:30;102658.0;;;35.15;22.64
59654;BME280;45496;52.010;5.418;2022-07-10T03:32:17;102661.99999999999;;;35.03;22.85
59654;BME280;45496;52.010;5.418;2022-07-10T03:37:38;102633.99999999999;;;35.89;22.12
59654;BME280;45496;52.010;5.418;2022-07-10T03:39:26;102632.0;;;35.47;22.68
59654;BME280;45496;52.010;5.418;2022-07-10T03:41:13;102636.99999999999;;;35.35;22.74
59654;BME280;45496;52.010;5.418;2022-07-10T03:43:00;102638.00000000001;;;35.29;22.82
59654;BME280;45496;52.010;5.418;2022-07-10T03:44:47;102638.00000000001;;;35.49;22.68
59654;BME280;45496;52.010;5.418;2022-07-10T03:46:34;102641.00000000001;;;35.26;22.86
59654;BME280;45496;52.010;5.418;2022-07-10T03:50:08;102636.99999999999;;;35.35;22.81
59654;BME280;45496;52.010;5.418;2022-07-10T03:51:58;102628.0;;;35.19;23.14
59654;BME280;45496;52.010;5.418;2022-07-10T03:53:45;102634.99999999999;;;35.24;23.08
59654;BME280;45496;52.010;5.418;2022-07-10T03:55:32;102639.00000000001;;;35.46;22.81
59654;BME280;45496;52.010;5.418;2022-07-10T03:58:23;102634.99999999999;;;35.21;23.01
59654;BME280;45496;52.010;5.418;2022-07-10T04:00:12;102631.0;;;35.32;22.94
59654;BME280;45496;52.010;5.418;2022-07-10T04:01:59;102629.0;;;35.35;22.86
59654;BME280;45496;52.010;5.418;2022-07-10T04:03:45;102624.0;;;35.51;22.67
59654;BME280;45496;52.010;5.418;2022-07-10T04:05:33;102634.99999999999;;;35.26;23.05
59654;BME280;45496;52.010;5.418;2022-07-10T04:09:08;102642.0;;;35.01;23.47
59654;BME280;45496;52.010;5.418;2022-07-10T04:10:55;102638.00000000001;;;35.06;23.45
59654;BME280;45496;52.010;5.418;2022-07-10T04:12:41;102630.0;;;35.72;22.79
59654;BME280;45496;52.010;5.418;2022-07-10T04:14:28;102617.0;;;35.75;22.84
59654;BME280;45496;52.010;5.418;2022-07-10T04:16:14;102616.00000000001;;;35.96;22.63
59654;BME280;45496;52.010;5.418;2022-07-10T04:18:01;102616.00000000001;;;35.14;23.69
59654;BME280;45496;52.010;5.418;2022-07-10T04:21:35;102623.0;;;35.37;23.42
59654;BME280;45496;52.010;5.418;2022-07-10T04:23:24;102627.0;;;35.31;23.38
59654;BME280;45496;52.010;5.418;2022-07-10T04:25:10;102628.0;;;35.67;22.98
59654;BME280;45496;52.010;5.418;2022-07-10T04:26:58;102629.0;;;35.47;23.21
59654;BME280;45496;52.010;5.418;2022-07-10T04:28:45;102629.0;;;35.46;23.02
59654;BME280;45496;52.010;5.418;2022-07-10T04:30:32;102630.0;;;35.89;22.75
59654;BME280;45496;52.010;5.418;2022-07-10T04:34:06;102630.0;;;35.97;22.65
59654;BME280;45496;52.010;5.418;2022-07-10T04:35:53;102630.0;;;35.47;23.31
59654;BME280;45496;52.010;5.418;2022-07-10T04:37:40;102623.0;;;35.99;22.78
59654;BME280;45496;52.010;5.418;2022-07-10T04:39:27;102620.0;;;35.72;23.13
59654;BME280;45496;52.010;5.418;2022-07-10T04:41:15;102620.0;;;35.85;23.04
59654;BME280;45496;52.010;5.418;2022-07-10T04:43:02;102620.0;;;35.94;22.89
59654;BME280;45496;52.010;5.418;2022-07-10T04:46:36;102625.0;;;35.67;23.35
59654;BME280;45496;52.010;5.418;2022-07-10T04:48:23;102629.0;;;35.6;23.56
59654;BME280;45496;52.010;5.418;2022-07-10T04:50:10;102626.0;;;35.92;23.26
59654;BME280;45496;52.010;5.418;2022-07-10T04:51:58;102633.0;;;35.89;23.21
59654;BME280;45496;52.010;5.418;2022-07-10T04:53:44;102630.0;;;36.15;22.98
59654;BME280;45496;52.010;5.418;2022-07-10T04:57:19;102631.0;;;35.54;23.68
59654;BME280;45496;52.010;5.418;2022-07-10T04:59:06;102628.0;;;36.35;22.95
59654;BME280;45496;52.010;5.418;2022-07-10T05:00:53;102622.0;;;36.78;22.47
59654;BME280;45496;52.010;5.418;2022-07-10T05:02:40;102622.0;;;36.72;22.43
59654;BME280;45496;52.010;5.418;2022-07-10T05:04:28;102621.0;;;36.67;22.47
59654;BME280;45496;52.010;5.418;2022-07-10T05:06:14;102623.0;;;36.64;22.55
59654;BME280;45496;52.010;5.418;2022-07-10T05:09:48;102626.0;;;36.31;22.9
59654;BME280;45496;52.010;5.418;2022-07-10T05:11:36;102630.0;;;36.64;22.48
59654;BME280;45496;52.010;5.418;2022-07-10T05:13:22;102633.99999999999;;;36.78;22.27
59654;BME280;45496;52.010;5.418;2022-07-10T05:15:10;102640.00000000001;;;36.67;22.35
59654;BME280;45496;52.010;5.418;2022-07-10T05:16:56;102642.0;;;36.5;22.53
59654;BME280;45496;52.010;5.418;2022-07-10T05:18:44;102645.0;;;36.53;22.54
59654;BME280;45496;52.010;5.418;2022-07-10T05:22:18;102636.99999999999;;;36.11;22.87
59654;BME280;45496;52.010;5.418;2022-07-10T05:24:05;102631.0;;;37.17;21.98
59654;BME280;45496;52.010;5.418;2022-07-10T05:25:52;102627.0;;;37.65;21.53
59654;BME280;45496;52.010;5.418;2022-07-10T05:27:39;102631.0;;;36.89;22.29
59654;BME280;45496;52.010;5.418;2022-07-10T05:29:26;102636.99999999999;;;36.26;22.76
59654;BME280;45496;52.010;5.418;2022-07-10T05:31:13;102633.99999999999;;;35.33;24.06
59654;BME280;45496;52.010;5.418;2022-07-10T05:34:48;102638.00000000001;;;36.04;23.15
59654;BME280;45496;52.010;5.418;2022-07-10T05:36:35;102631.0;;;36.83;22.64
59654;BME280;45496;52.010;5.418;2022-07-10T05:38:21;102633.99999999999;;;37.22;22.11
59654;BME280;45496;52.010;5.418;2022-07-10T05:40:09;102631.0;;;37.14;22.39
59654;BME280;45496;52.010;5.418;2022-07-10T05:41:57;102634.99999999999;;;36.47;22.58
59654;BME280;45496;52.010;5.418;2022-07-10T05:43:44;102633.99999999999;;;36.92;22.49
59654;BME280;45496;52.010;5.418;2022-07-10T05:47:19;102633.99999999999;;;36.99;22.39
59654;BME280;45496;52.010;5.418;2022-07-10T05:49:06;102639.00000000001;;;36.47;22.91
59654;BME280;45496;52.010;5.418;2022-07-10T05:50:53;102638.00000000001;;;36.72;22.61
59654;BME280;45496;52.010;5.418;2022-07-10T05:52:40;102633.0;;;36.99;22.36
59654;BME280;45496;52.010;5.418;2022-07-10T05:54:27;102633.0;;;36.76;22.64
59654;BME280;45496;52.010;5.418;2022-07-10T05:56:14;102628.0;;;37.39;22.02
59654;BME280;45496;52.010;5.418;2022-07-10T05:59:49;102627.0;;;36.64;22.32
59654;BME280;45496;52.010;5.418;2022-07-10T06:01:36;102627.0;;;35.92;23.06
59654;BME280;45496;52.010;5.418;2022-07-10T06:03:24;102629.0;;;36.85;22.27
59654;BME280;45496;52.010;5.418;2022-07-10T06:05:11;102632.0;;;37.17;21.97
59654;BME280;45496;52.010;5.418;2022-07-10T06:07:03;102625.0;;;37.39;21.8
59654;BME280;45496;52.010;5.418;2022-07-10T06:08:49;102629.0;;;36.31;22.79
59654;BME280;45496;52.010;5.418;2022-07-10T06:12:23;102626.0;;;37.4;21.68
59654;BME280;45496;52.010;5.418;2022-07-10T06:14:11;102633.99999999999;;;36.49;22.66
59654;BME280;45496;52.010;5.418;2022-07-10T06:15:57;102630.0;;;36.58;22.55
59654;BME280;45496;52.010;5.418;2022-07-10T06:17:44;102624.0;;;37.28;21.95
59654;BME280;45496;52.010;5.418;2022-07-10T06:19:31;102628.0;;;37.28;21.97
59654;BME280;45496;52.010;5.418;2022-07-10T06:21:21;102627.0;;;37.42;21.79
59654;BME280;45496;52.010;5.418;2022-07-10T06:24:56;102631.0;;;37.4;22.07
59654;BME280;45496;52.010;5.418;2022-07-10T06:26:42;102628.0;;;37.75;21.78
59654;BME280;45496;52.010;5.418;2022-07-10T06:28:30;102629.0;;;37.47;22.14
59654;BME280;45496;52.010;5.418;2022-07-10T06:30:20;102627.0;;;37.39;22.12
59654;BME280;45496;52.010;5.418;2022-07-10T06:32:08;102632.0;;;37.21;22.28
59654;BME280;45496;52.010;5.418;2022-07-10T06:33:54;102634.99999999999;;;37.53;22.04
59654;BME280;45496;52.010;5.418;2022-07-10T06:37:30;102640.00000000001;;;36.62;22.6
59654;BME280;45496;52.010;5.418;2022-07-10T06:39:17;102639.00000000001;;;37.32;22.16
59654;BME280;45496;52.010;5.418;2022-07-10T06:41:05;102642.0;;;37.07;22.16
59654;BME280;45496;52.010;5.418;2022-07-10T06:42:52;102642.0;;;37.26;22.14
59654;BME280;45496;52.010;5.418;2022-07-10T06:44:39;102645.0;;;36.37;22.84
59654;BME280;45496;52.010;5.418;2022-07-10T06:46:28;102642.0;;;37.03;22.4
59654;BME280;45496;52.010;5.418;2022-07-10T06:50:03;102641.00000000001;;;36.76;22.6
59654;BME280;45496;52.010;5.418;2022-07-10T06:51:50;102641.00000000001;;;36.65;22.48
59654;BME280;45496;52.010;5.418;2022-07-10T06:53:38;102634.99999999999;;;37.06;22.31
59654;BME280;45496;52.010;5.418;2022-07-10T06:55:26;102633.99999999999;;;36.49;22.9
59654;BME280;45496;52.010;5.418;2022-07-10T06:57:13;102633.0;;;36.89;22.44
59654;BME280;45496;52.010;5.418;2022-07-10T06:59:01;102640.00000000001;;;34.79;24.67
59654;BME280;45496;52.010;5.418;2022-07-10T07:02:35;102636.99999999999;;;34.72;24.93
59654;BME280;45496;52.010;5.418;2022-07-10T07:04:23;102643.0;;;35.1;24.38
59654;BME280;45496;52.010;5.418;2022-07-10T07:06:10;102638.00000000001;;;36.17;23.31
59654;BME280;45496;52.010;5.418;2022-07-10T07:07:57;102640.00000000001;;;36.33;23.19
59654;BME280;45496;52.010;5.418;2022-07-10T07:09:45;102634.99999999999;;;36.44;22.84
59654;BME280;45496;52.010;5.418;2022-07-10T07:11:36;102636.99999999999;;;36.26;23.18
59654;BME280;45496;52.010;5.418;2022-07-10T07:15:10;102638.00000000001;;;36.35;23.12
59654;BME280;45496;52.010;5.418;2022-07-10T07:16:59;102636.99999999999;;;35.85;23.53
59654;BME280;45496;52.010;5.418;2022-07-10T07:18:49;102639.00000000001;;;36.08;23.33
59654;BME280;45496;52.010;5.418;2022-07-10T07:23:43;102646.0;;;34.57;24.95
59654;BME280;45496;52.010;5.418;2022-07-10T07:25:30;102648.0;;;35.28;24.22
59654;BME280;45496;52.010;5.418;2022-07-10T07:27:17;102649.0;;;36.74;22.69
59654;BME280;45496;52.010;5.418;2022-07-10T07:29:04;102647.0;;;37.1;22.59
59654;BME280;45496;52.010;5.418;2022-07-10T07:30:52;102650.0;;;36.72;22.87
59654;BME280;45496;52.010;5.418;2022-07-10T07:32:38;102643.0;;;36.85;22.7
59654;BME280;45496;52.010;5.418;2022-07-10T07:36:12;102639.00000000001;;;37.76;21.86
59654;BME280;45496;52.010;5.418;2022-07-10T07:38:00;102638.00000000001;;;38.0;21.64
59654;BME280;45496;52.010;5.418;2022-07-10T07:39:48;102639.00000000001;;;38.08;21.51
59654;BME280;45496;52.010;5.418;2022-07-10T07:41:35;102642.0;;;36.89;22.64
59654;BME280;45496;52.010;5.418;2022-07-10T07:43:22;102643.0;;;37.06;22.42
59654;BME280;45496;52.010;5.418;2022-07-10T07:45:10;102636.99999999999;;;37.36;22.19
59654;BME280;45496;52.010;5.418;2022-07-10T07:48:44;102639.00000000001;;;37.47;22.28
59654;BME280;45496;52.010;5.418;2022-07-10T07:50:34;102640.00000000001;;;37.62;22.17
59654;BME280;45496;52.010;5.418;2022-07-10T07:52:22;102643.0;;;36.74;23.25
59654;BME280;45496;52.010;5.418;2022-07-10T07:54:10;102643.0;;;36.74;23.2
59654;BME280;45496;52.010;5.418;2022-07-10T07:55:57;102643.0;;;36.54;23.13
59654;BME280;45496;52.010;5.418;2022-07-10T07:57:44;102638.00000000001;;;35.83;23.5
59654;BME280;45496;52.010;5.418;2022-07-10T08:01:21;102634.99999999999;;;36.42;23.12
59654;BME280;45496;52.010;5.418;2022-07-10T08:03:08;102632.0;;;36.96;22.66
59654;BME280;45496;52.010;5.418;2022-07-10T08:04:55;102633.99999999999;;;37.25;22.2
59654;BME280;45496;52.010;5.418;2022-07-10T08:06:43;102633.99999999999;;;37.74;22.0
59654;BME280;45496;52.010;5.418;2022-07-10T08:08:29;102639.00000000001;;;38.19;21.87
59654;BME280;45496;52.010;5.418;2022-07-10T08:10:17;102640.00000000001;;;38.14;21.66
59654;BME280;45496;52.010;5.418;2022-07-10T08:13:54;102641.00000000001;;;37.51;22.11
59654;BME280;45496;52.010;5.418;2022-07-10T08:15:41;102641.00000000001;;;37.42;22.22
59654;BME280;45496;52.010;5.418;2022-07-10T08:17:27;102641.00000000001;;;37.86;21.91
59654;BME280;45496;52.010;5.418;2022-07-10T08:19:15;102644.0;;;37.89;21.83
59654;BME280;45496;52.010;5.418;2022-07-10T08:21:02;102638.00000000001;;;37.65;21.83
59654;BME280;45496;52.010;5.418;2022-07-10T08:22:49;102644.0;;;37.54;22.01
59654;BME280;45496;52.010;5.418;2022-07-10T08:26:23;102647.0;;;37.36;22.2
59654;BME280;45496;52.010;5.418;2022-07-10T08:28:12;102651.0;;;36.74;22.88
59654;BME280;45496;52.010;5.418;2022-07-10T08:29:58;102645.0;;;37.1;22.49
59654;BME280;45496;52.010;5.418;2022-07-10T08:31:46;102642.0;;;37.81;21.85
59654;BME280;45496;52.010;5.418;2022-07-10T08:33:33;102643.0;;;37.19;22.33
59654;BME280;45496;52.010;5.418;2022-07-10T08:35:20;102644.0;;;37.42;21.96
59654;BME280;45496;52.010;5.418;2022-07-10T08:38:54;102645.0;;;36.99;22.45
59654;BME280;45496;52.010;5.418;2022-07-10T08:40:42;102646.0;;;37.35;22.27
59654;BME280;45496;52.010;5.418;2022-07-10T08:42:32;102642.0;;;36.92;22.61
59654;BME280;45496;52.010;5.418;2022-07-10T08:44:19;102639.00000000001;;;37.36;22.45
59654;BME280;45496;52.010;5.418;2022-07-10T08:46:06;102642.0;;;38.07;21.84
59654;BME280;45496;52.010;5.418;2022-07-10T08:47:55;102638.00000000001;;;38.42;21.52
59654;BME280;45496;52.010;5.418;2022-07-10T08:51:37;102642.0;;;38.4;21.54
59654;BME280;45496;52.010;5.418;2022-07-10T08:53:29;102631.0;;;37.43;22.23
59654;BME280;45496;52.010;5.418;2022-07-10T08:55:17;102630.0;;;37.96;21.68
59654;BME280;45496;52.010;5.418;2022-07-10T08:57:05;102642.0;;;37.15;22.66
59654;BME280;45496;52.010;5.418;2022-07-10T08:58:53;102634.99999999999;;;37.78;22.12
59654;BME280;45496;52.010;5.418;2022-07-10T09:00:40;102638.00000000001;;;37.35;22.44
59654;BME280;45496;52.010;5.418;2022-07-10T09:02:27;102639.00000000001;;;37.22;22.34
59654;BME280;45496;52.010;5.418;2022-07-10T09:06:04;102636.99999999999;;;38.1;21.48
59654;BME280;45496;52.010;5.418;2022-07-10T09:07:54;102632.0;;;38.07;21.46
59654;BME280;45496;52.010;5.418;2022-07-10T09:09:57;102628.0;;;37.74;21.52
59654;BME280;45496;52.010;5.418;2022-07-10T09:11:44;102627.0;;;38.39;21.43
59654;BME280;45496;52.010;5.418;2022-07-10T09:13:48;102626.0;;;37.92;21.4
59654;BME280;45496;52.010;5.418;2022-07-10T09:15:35;102630.0;;;36.82;22.29
59654;BME280;45496;52.010;5.418;2022-07-10T09:17:23;102621.0;;;37.46;21.97
59654;BME280;45496;52.010;5.418;2022-07-10T09:19:18;102622.0;;;37.86;21.8
59654;BME280;45496;52.010;5.418;2022-07-10T09:22:59;102621.0;;;37.21;22.36
59654;BME280;45496;52.010;5.418;2022-07-10T09:24:54;102618.0;;;38.1;21.44
59654;BME280;45496;52.010;5.418;2022-07-10T09:26:41;102617.0;;;37.44;21.94
59654;BME280;45496;52.010;5.418;2022-07-10T09:28:29;102618.0;;;38.33;21.06
59654;BME280;45496;52.010;5.418;2022-07-10T09:30:31;102623.0;;;37.67;21.32
59654;BME280;45496;52.010;5.418;2022-07-10T09:32:18;102617.0;;;38.46;20.5
59654;BME280;45496;52.010;5.418;2022-07-10T09:34:05;102619.0;;;38.54;20.54
59654;BME280;45496;52.010;5.418;2022-07-10T09:36:10;102620.0;;;38.85;20.53
59654;BME280;45496;52.010;5.418;2022-07-10T09:37:57;102622.0;;;38.85;20.65
59654;BME280;45496;52.010;5.418;2022-07-10T09:41:42;102617.0;;;38.82;20.88
59654;BME280;45496;52.010;5.418;2022-07-10T09:43:43;102609.99999999999;;;38.25;21.14
59654;BME280;45496;52.010;5.418;2022-07-10T09:45:29;102608.0;;;38.72;21.12
59654;BME280;45496;52.010;5.418;2022-07-10T09:47:21;102605.0;;;39.6;20.62
59654;BME280;45496;52.010;5.418;2022-07-10T09:49:09;102601.0;;;38.08;21.64
59654;BME280;45496;52.010;5.418;2022-07-10T09:50:56;102598.0;;;38.35;21.1
59654;BME280;45496;52.010;5.418;2022-07-10T09:52:45;102603.0;;;39.26;20.63
59654;BME280;45496;52.010;5.418;2022-07-10T09:56:22;102592.0;;;39.28;20.23
59654;BME280;45496;52.010;5.418;2022-07-10T09:58:11;102597.0;;;38.89;20.65
59654;BME280;45496;52.010;5.418;2022-07-10T09:59:59;102598.0;;;39.42;20.28
59654;BME280;45496;52.010;5.418;2022-07-10T10:01:47;102595.0;;;39.14;20.45
59654;BME280;45496;52.010;5.418;2022-07-10T10:03:36;102598.0;;;39.04;20.56
59654;BME280;45496;52.010;5.418;2022-07-10T10:05:31;102595.0;;;38.92;20.28
59654;BME280;45496;52.010;5.418;2022-07-10T10:07:22;102591.00000000001;;;39.29;19.7
59654;BME280;45496;52.010;5.418;2022-07-10T10:11:07;102592.0;;;39.08;20.07
59654;BME280;45496;52.010;5.418;2022-07-10T10:13:03;102586.99999999999;;;39.83;19.87
59654;BME280;45496;52.010;5.418;2022-07-10T10:14:52;102591.00000000001;;;39.0;21.11
59654;BME280;45496;52.010;5.418;2022-07-10T10:16:39;102593.0;;;38.81;21.06
59654;BME280;45496;52.010;5.418;2022-07-10T10:18:29;102583.99999999999;;;39.21;20.52
59654;BME280;45496;52.010;5.418;2022-07-10T10:20:49;102582.0;;;38.83;20.39
59654;BME280;45496;52.010;5.418;2022-07-10T10:22:40;102582.0;;;39.31;19.95
59654;BME280;45496;52.010;5.418;2022-07-10T10:24:31;102589.00000000001;;;39.37;20.16
59654;BME280;45496;52.010;5.418;2022-07-10T10:26:18;102583.99999999999;;;39.18;20.14
59654;BME280;45496;52.010;5.418;2022-07-10T10:29:57;102584.99999999999;;;39.78;20.09
59654;BME280;45496;52.010;5.418;2022-07-10T10:31:46;102589.00000000001;;;39.78;20.23
59654;BME280;45496;52.010;5.418;2022-07-10T10:33:47;102590.00000000001;;;38.72;20.78
59654;BME280;45496;52.010;5.418;2022-07-10T10:35:44;102594.0;;;39.46;19.98
59654;BME280;45496;52.010;5.418;2022-07-10T10:37:35;102588.00000000001;;;39.31;20.48
59654;BME280;45496;52.010;5.418;2022-07-10T10:39:22;102588.00000000001;;;40.33;19.61
59654;BME280;45496;52.010;5.418;2022-07-10T10:41:25;102592.0;;;38.39;21.08